createdAt,value
2023-01-25T00:00:24.776Z,18.70
2023-01-25T00:05:26.414Z,23.27
2023-01-25T00:10:28.089Z,20.33
2023-01-25T00:15:30.810Z,22.10
2023-01-25T00:20:32.410Z,25.83
2023-01-25T00:25:34.277Z,22.77
2023-01-25T00:30:35.891Z,24.60
2023-01-25T00:35:38.722Z,23.37
2023-01-25T00:40:40.349Z,23.20
2023-01-25T00:45:42.000Z,30.33
2023-01-25T00:50:44.059Z,29.20
2023-01-25T00:55:53.088Z,27.23
2023-01-25T01:00:55.948Z,26.43
2023-01-25T01:06:24.050Z,26.00
2023-01-25T01:11:27.778Z,26.87
2023-01-25T01:16:29.463Z,24.70
2023-01-25T01:21:31.300Z,25.33
2023-01-25T01:26:33.015Z,26.37
2023-01-25T01:31:34.727Z,29.23
2023-01-25T01:36:51.621Z,27.13
2023-01-25T01:41:53.894Z,30.90
2023-01-25T01:46:58.765Z,24.63
2023-01-25T01:52:10.766Z,26.35
2023-01-25T01:57:15.999Z,30.23
2023-01-25T02:02:18.477Z,26.63
2023-01-25T02:07:27.529Z,25.17
2023-01-25T02:12:29.850Z,24.97
2023-01-25T02:17:35.403Z,22.60
2023-01-25T02:22:47.685Z,25.85
2023-01-25T02:27:56.468Z,26.25
2023-01-25T02:32:58.314Z,25.50
2023-01-25T02:38:00.144Z,25.45
2023-01-25T02:43:03.260Z,25.95
2023-01-25T02:48:05.521Z,23.15
2023-01-25T02:53:07.399Z,21.92
2023-01-25T02:58:09.405Z,24.55
2023-01-25T03:03:11.523Z,26.52
2023-01-25T03:08:13.770Z,26.50
2023-01-25T03:13:16.384Z,27.15
2023-01-25T03:18:18.619Z,24.27
2023-01-25T03:23:22.303Z,28.42
2023-01-25T03:28:25.535Z,26.27
2023-01-25T03:33:29.640Z,23.73
2023-01-25T03:38:31.917Z,29.70
2023-01-25T03:43:34.071Z,27.30
2023-01-25T03:48:36.788Z,25.73
2023-01-25T03:53:39.732Z,24.40
2023-01-25T03:58:45.897Z,28.15
2023-01-25T04:03:47.968Z,24.48
2023-01-25T04:08:50.570Z,25.90
2023-01-25T04:13:53.789Z,25.90
2023-01-25T04:18:58.185Z,23.92
2023-01-25T04:24:01.595Z,26.73
2023-01-25T04:29:05.004Z,29.42
2023-01-25T04:34:08.030Z,26.90
2023-01-25T04:39:09.876Z,28.45
2023-01-25T04:44:12.762Z,28.23
2023-01-25T04:49:16.229Z,34.87
2023-01-25T04:54:18.415Z,32.03
2023-01-25T04:59:20.449Z,36.20
2023-01-25T05:04:23.061Z,29.03
2023-01-25T05:09:26.453Z,31.20
2023-01-25T05:14:29.616Z,30.67
2023-01-25T05:19:35.253Z,29.53
2023-01-25T05:24:42.993Z,28.57
2023-01-25T05:29:47.153Z,27.53
2023-01-25T05:34:50.337Z,26.90
2023-01-25T05:39:52.902Z,27.27
2023-01-25T05:44:55.389Z,23.10
2023-01-25T05:49:57.720Z,26.23
2023-01-25T05:55:15.103Z,27.80
2023-01-25T06:00:17.956Z,29.00
2023-01-25T06:05:19.834Z,31.90
2023-01-25T06:10:21.828Z,30.83
2023-01-25T06:15:25.946Z,30.43
2023-01-25T06:20:30.007Z,37.38
2023-01-25T06:25:40.783Z,31.30
2023-01-25T06:30:42.926Z,32.65
2023-01-25T06:35:44.802Z,29.23
2023-01-25T06:40:46.621Z,33.27
2023-01-25T06:45:48.409Z,26.50
2023-01-25T06:50:59.702Z,24.87
2023-01-25T06:56:04.372Z,24.97
2023-01-25T07:01:15.238Z,24.70
2023-01-25T07:06:17.990Z,23.90
2023-01-25T07:11:19.978Z,25.50
2023-01-25T07:16:21.934Z,24.00
2023-01-25T07:21:24.912Z,22.92
2023-01-25T07:26:27.181Z,23.60
2023-01-25T07:31:29.343Z,21.93
2023-01-25T07:36:31.511Z,27.75
2023-01-25T07:41:33.509Z,25.00
2023-01-25T07:46:35.334Z,22.73
2023-01-25T07:51:37.287Z,22.98
2023-01-25T07:56:40.697Z,25.90
2023-01-25T08:01:42.642Z,24.40
2023-01-25T08:06:46.619Z,23.55
2023-01-25T08:11:49.521Z,24.50
2023-01-25T08:16:51.451Z,26.17
2023-01-25T08:21:53.295Z,22.73
2023-01-25T08:26:55.100Z,22.88
2023-01-25T08:31:57.017Z,31.67
2023-01-25T08:36:58.921Z,46.40
2023-01-25T08:42:00.715Z,43.30
2023-01-25T08:47:02.499Z,49.05
2023-01-25T08:52:04.509Z,46.05
2023-01-25T08:57:06.345Z,52.13
2023-01-25T09:02:12.313Z,48.88
2023-01-25T09:07:14.145Z,48.53
2023-01-25T09:12:15.951Z,46.78
2023-01-25T09:17:17.759Z,45.65
2023-01-25T09:22:19.582Z,47.60
2023-01-25T09:27:21.403Z,44.13
2023-01-25T09:32:23.208Z,37.92
2023-01-25T09:37:27.805Z,40.88
2023-01-25T09:43:03.333Z,35.72
2023-01-25T09:48:14.175Z,36.58
2023-01-25T09:53:35.322Z,36.75
2023-01-25T09:58:44.984Z,37.70
2023-01-25T10:03:55.424Z,40.53
2023-01-25T10:09:18.800Z,28.67
2023-01-25T10:14:21.685Z,34.50
2023-01-25T10:19:36.099Z,44.42
2023-01-25T10:24:50.195Z,42.15
2023-01-25T10:29:56.968Z,45.75
2023-01-25T10:35:12.648Z,49.92
2023-01-25T10:40:30.887Z,50.53
2023-01-25T10:45:32.668Z,44.78
2023-01-25T10:50:43.983Z,37.08
2023-01-25T10:56:25.468Z,32.72
2023-01-25T11:01:32.986Z,35.05
2023-01-25T11:06:47.193Z,28.45
2023-01-25T11:11:57.804Z,27.98
2023-01-25T11:17:02.024Z,28.08
2023-01-25T11:22:24.083Z,31.70
2023-01-25T11:27:27.423Z,28.88
2023-01-25T11:32:29.475Z,31.48
2023-01-25T11:37:31.391Z,27.55
2023-01-25T11:43:10.746Z,29.17
2023-01-25T11:48:35.454Z,31.50
2023-01-25T11:54:13.633Z,30.88
2023-01-25T11:59:24.429Z,27.48
2023-01-25T12:05:12.696Z,27.40
2023-01-25T12:10:35.095Z,31.60
2023-01-25T12:15:55.085Z,29.27
2023-01-25T12:21:08.233Z,30.73
2023-01-25T12:26:27.232Z,31.00
2023-01-25T12:31:48.915Z,31.35
2023-01-25T12:36:51.478Z,32.72
2023-01-25T12:42:34.895Z,35.17
2023-01-25T12:47:46.179Z,33.92
2023-01-25T12:53:13.645Z,31.83
2023-01-25T12:58:55.343Z,39.22
2023-01-25T13:04:34.680Z,34.65
2023-01-25T13:09:36.449Z,34.17
2023-01-25T13:14:40.458Z,31.98
2023-01-25T13:19:43.299Z,36.00
2023-01-25T13:25:03.908Z,35.25
2023-01-25T13:30:30.842Z,39.67
2023-01-25T13:35:43.542Z,35.42
2023-01-25T13:40:45.785Z,40.85
2023-01-25T13:45:51.365Z,36.15
2023-01-25T13:51:04.527Z,35.45
2023-01-25T13:56:25.418Z,35.90
2023-01-25T14:01:29.334Z,37.80
2023-01-25T14:06:40.610Z,35.50
2023-01-25T14:12:02.414Z,33.78
2023-01-25T14:17:13.403Z,37.83
2023-01-25T14:22:33.815Z,34.35
2023-01-25T14:27:40.984Z,33.20
2023-01-25T14:32:42.775Z,45.80
2023-01-25T14:37:44.566Z,38.33
2023-01-25T14:42:46.949Z,39.35
2023-01-25T14:47:59.081Z,38.00
2023-01-25T14:53:25.140Z,39.83
2023-01-25T14:58:32.125Z,35.70
2023-01-25T15:03:33.960Z,38.63
2023-01-25T15:08:40.838Z,36.08
2023-01-25T15:13:42.664Z,39.33
2023-01-25T15:18:51.807Z,42.05
2023-01-25T15:23:56.024Z,46.38
2023-01-25T15:29:20.940Z,53.85
2023-01-25T15:34:35.141Z,54.38
2023-01-25T15:39:37.111Z,67.80
2023-01-25T15:44:38.916Z,57.90
2023-01-25T15:49:40.793Z,56.75
2023-01-25T15:54:51.741Z,58.08
2023-01-25T15:59:56.171Z,63.50
2023-01-25T16:04:57.986Z,94.43
2023-01-25T16:09:59.817Z,73.73
2023-01-25T16:15:01.670Z,64.85
2023-01-25T16:20:04.045Z,72.57
2023-01-25T16:25:08.899Z,72.53
2023-01-25T16:30:31.259Z,73.47
2023-01-25T16:35:33.342Z,63.45
2023-01-25T16:40:39.889Z,68.78
2023-01-25T16:45:41.854Z,73.87
2023-01-25T16:50:43.719Z,67.90
2023-01-25T16:55:45.514Z,77.87
2023-01-25T17:00:47.324Z,64.30
2023-01-25T17:05:49.094Z,66.25
2023-01-25T17:10:50.881Z,62.65
2023-01-25T17:15:56.617Z,59.90
2023-01-25T17:21:04.827Z,60.22
2023-01-25T17:26:09.686Z,58.95
2023-01-25T17:31:18.821Z,56.92
2023-01-25T17:36:21.192Z,53.85
2023-01-25T17:41:23.000Z,58.53
2023-01-25T17:46:26.481Z,60.92
2023-01-25T17:51:28.756Z,64.95
2023-01-25T17:56:30.860Z,56.10
2023-01-25T18:01:32.741Z,57.55
2023-01-25T18:06:35.125Z,58.17
2023-01-25T18:11:38.435Z,53.87
2023-01-25T18:16:41.408Z,51.80
2023-01-25T18:21:43.452Z,53.20
2023-01-25T18:26:45.273Z,55.35
2023-01-25T18:31:48.633Z,57.42
2023-01-25T18:36:53.399Z,57.70
2023-01-25T18:41:55.394Z,55.65
2023-01-25T18:46:57.435Z,55.83
2023-01-25T18:52:11.009Z,59.33
2023-01-25T18:57:14.464Z,57.50
2023-01-25T19:02:17.680Z,56.10
2023-01-25T19:07:19.587Z,61.63
2023-01-25T19:12:21.525Z,59.67
2023-01-25T19:17:23.318Z,70.88
2023-01-25T19:22:25.959Z,58.40
2023-01-25T19:27:29.455Z,66.07
2023-01-25T19:32:31.479Z,54.97
2023-01-25T19:37:33.858Z,62.20
2023-01-25T19:42:36.687Z,58.95
2023-01-25T19:47:39.141Z,55.80
2023-01-25T19:52:41.081Z,59.65
2023-01-25T19:57:43.183Z,55.60
2023-01-25T20:02:47.550Z,67.20
2023-01-25T20:07:49.477Z,56.45
2023-01-25T20:12:51.277Z,60.17
2023-01-25T20:17:53.186Z,62.90
2023-01-25T20:22:55.213Z,62.83
2023-01-25T20:27:56.996Z,56.30
2023-01-25T20:32:59.185Z,57.53
2023-01-25T20:38:01.053Z,51.05
2023-01-25T20:43:02.915Z,45.78
2023-01-25T20:48:04.945Z,42.30
2023-01-25T20:53:06.794Z,41.23
2023-01-25T20:58:08.858Z,40.33
2023-01-25T21:03:10.681Z,45.67
2023-01-25T21:08:12.589Z,45.90
2023-01-25T21:13:14.398Z,46.85
2023-01-25T21:18:16.696Z,33.03
2023-01-25T21:23:18.548Z,34.65
2023-01-25T21:28:20.380Z,34.10
2023-01-25T21:33:22.478Z,38.47
2023-01-25T21:38:25.268Z,34.30
2023-01-25T21:43:27.063Z,35.60
2023-01-25T21:48:47.345Z,34.28
2023-01-25T21:53:49.219Z,35.25
2023-01-25T21:58:51.263Z,32.70
2023-01-25T22:03:53.365Z,29.42
2023-01-25T22:08:55.247Z,30.23
2023-01-25T22:13:57.105Z,24.58
2023-01-25T22:19:00.156Z,27.23
2023-01-25T22:24:04.486Z,28.80
2023-01-25T22:29:09.470Z,35.42
2023-01-25T22:34:11.566Z,34.35
2023-01-25T22:39:14.929Z,31.42
2023-01-25T22:44:16.853Z,34.15
2023-01-25T22:49:18.724Z,28.65
2023-01-25T22:54:20.582Z,31.30
2023-01-25T22:59:22.384Z,29.88
2023-01-25T23:04:24.256Z,29.10
2023-01-25T23:09:26.111Z,31.92
2023-01-25T23:14:46.356Z,29.08
2023-01-25T23:19:48.176Z,29.45
2023-01-25T23:24:50.017Z,28.70
2023-01-25T23:29:51.948Z,28.17
2023-01-25T23:34:53.812Z,27.15
2023-01-25T23:39:55.866Z,33.50
2023-01-25T23:44:57.663Z,35.40
2023-01-25T23:49:59.447Z,33.78
2023-01-25T23:55:01.600Z,40.95
